sensor_id;sensor_type;location;lat;lon;timestamp;P1;durP1;ratioP1;P2;durP2;ratioP2
11568;SDS011;5840;46.894;15.542;2023-04-06T00:00:35;6.87;;;6.27;;
11568;SDS011;5840;46.894;15.542;2023-04-06T00:03:01;7.13;;;6.47;;
11568;SDS011;5840;46.894;15.542;2023-04-06T00:05:29;6.27;;;5.67;;
11568;SDS011;5840;46.894;15.542;2023-04-06T00:07:56;6.70;;;6.20;;
11568;SDS011;5840;46.894;15.542;2023-04-06T00:10:24;5.83;;;5.33;;
11568;SDS011;5840;46.894;15.542;2023-04-06T00:12:51;5.87;;;5.37;;
11568;SDS011;5840;46.894;15.542;2023-04-06T00:15:18;6.30;;;5.80;;
11568;SDS011;5840;46.894;15.542;2023-04-06T00:17:46;7.30;;;6.10;;
11568;SDS011;5840;46.894;15.542;2023-04-06T00:20:13;6.57;;;5.87;;
11568;SDS011;5840;46.894;15.542;2023-04-06T00:22:40;7.57;;;6.20;;
11568;SDS011;5840;46.894;15.542;2023-04-06T00:25:08;5.63;;;5.20;;
11568;SDS011;5840;46.894;15.542;2023-04-06T00:27:35;6.47;;;5.83;;
11568;SDS011;5840;46.894;15.542;2023-04-06T00:30:02;5.80;;;5.30;;
11568;SDS011;5840;46.894;15.542;2023-04-06T00:32:29;6.57;;;6.07;;
11568;SDS011;5840;46.894;15.542;2023-04-06T00:34:58;6.43;;;5.83;;
11568;SDS011;5840;46.894;15.542;2023-04-06T00:37:25;6.87;;;6.30;;
11568;SDS011;5840;46.894;15.542;2023-04-06T00:39:52;6.77;;;6.17;;
11568;SDS011;5840;46.894;15.542;2023-04-06T00:42:19;6.57;;;6.00;;
11568;SDS011;5840;46.894;15.542;2023-04-06T00:44:51;6.17;;;5.67;;
11568;SDS011;5840;46.894;15.542;2023-04-06T00:47:19;6.93;;;5.50;;
11568;SDS011;5840;46.894;15.542;2023-04-06T00:49:46;5.90;;;5.50;;
11568;SDS011;5840;46.894;15.542;2023-04-06T00:52:14;6.33;;;5.73;;
11568;SDS011;5840;46.894;15.542;2023-04-06T00:54:41;6.50;;;5.97;;
11568;SDS011;5840;46.894;15.542;2023-04-06T00:57:08;7.20;;;6.60;;
11568;SDS011;5840;46.894;15.542;2023-04-06T00:59:35;7.03;;;6.43;;
11568;SDS011;5840;46.894;15.542;2023-04-06T01:02:02;7.37;;;6.67;;
11568;SDS011;5840;46.894;15.542;2023-04-06T01:04:29;7.03;;;6.00;;
11568;SDS011;5840;46.894;15.542;2023-04-06T01:06:57;7.80;;;6.47;;
11568;SDS011;5840;46.894;15.542;2023-04-06T01:09:25;7.13;;;6.00;;
11568;SDS011;5840;46.894;15.542;2023-04-06T01:11:53;6.43;;;5.93;;
11568;SDS011;5840;46.894;15.542;2023-04-06T01:14:21;6.47;;;5.97;;
11568;SDS011;5840;46.894;15.542;2023-04-06T01:16:48;6.13;;;5.63;;
11568;SDS011;5840;46.894;15.542;2023-04-06T01:19:15;6.20;;;5.70;;
11568;SDS011;5840;46.894;15.542;2023-04-06T01:21:42;6.67;;;6.00;;
11568;SDS011;5840;46.894;15.542;2023-04-06T01:24:11;7.23;;;6.03;;
11568;SDS011;5840;46.894;15.542;2023-04-06T01:26:38;7.93;;;6.37;;
11568;SDS011;5840;46.894;15.542;2023-04-06T01:29:05;7.00;;;6.43;;
11568;SDS011;5840;46.894;15.542;2023-04-06T01:31:32;11.57;;;10.47;;
11568;SDS011;5840;46.894;15.542;2023-04-06T01:33:59;10.07;;;9.17;;
11568;SDS011;5840;46.894;15.542;2023-04-06T01:36:26;9.17;;;8.37;;
11568;SDS011;5840;46.894;15.542;2023-04-06T01:38:53;7.67;;;6.97;;
11568;SDS011;5840;46.894;15.542;2023-04-06T01:41:22;7.00;;;6.37;;
11568;SDS011;5840;46.894;15.542;2023-04-06T01:43:49;19.77;;;17.50;;
11568;SDS011;5840;46.894;15.542;2023-04-06T01:46:19;9.53;;;8.77;;
11568;SDS011;5840;46.894;15.542;2023-04-06T01:48:46;9.80;;;8.90;;
11568;SDS011;5840;46.894;15.542;2023-04-06T01:51:13;7.60;;;7.00;;
11568;SDS011;5840;46.894;15.542;2023-04-06T01:53:41;7.73;;;7.13;;
11568;SDS011;5840;46.894;15.542;2023-04-06T01:56:08;8.03;;;7.13;;
11568;SDS011;5840;46.894;15.542;2023-04-06T01:58:36;7.00;;;6.33;;
11568;SDS011;5840;46.894;15.542;2023-04-06T02:01:03;7.67;;;6.37;;
11568;SDS011;5840;46.894;15.542;2023-04-06T02:03:30;7.07;;;6.43;;
11568;SDS011;5840;46.894;15.542;2023-04-06T02:05:57;7.17;;;6.47;;
11568;SDS011;5840;46.894;15.542;2023-04-06T02:08:24;6.93;;;6.33;;
11568;SDS011;5840;46.894;15.542;2023-04-06T02:10:51;6.60;;;6.00;;
11568;SDS011;5840;46.894;15.542;2023-04-06T02:13:18;6.77;;;6.17;;
11568;SDS011;5840;46.894;15.542;2023-04-06T02:15:46;6.30;;;5.70;;
11568;SDS011;5840;46.894;15.542;2023-04-06T02:18:13;7.00;;;6.40;;
11568;SDS011;5840;46.894;15.542;2023-04-06T02:20:42;6.60;;;6.00;;
11568;SDS011;5840;46.894;15.542;2023-04-06T02:23:09;7.53;;;6.83;;
11568;SDS011;5840;46.894;15.542;2023-04-06T02:25:36;7.27;;;6.60;;
11568;SDS011;5840;46.894;15.542;2023-04-06T02:28:03;7.33;;;6.57;;
11568;SDS011;5840;46.894;15.542;2023-04-06T02:30:30;7.67;;;6.97;;
11568;SDS011;5840;46.894;15.542;2023-04-06T02:32:59;9.03;;;7.70;;
11568;SDS011;5840;46.894;15.542;2023-04-06T02:35:27;9.23;;;8.27;;
11568;SDS011;5840;46.894;15.542;2023-04-06T02:37:55;8.67;;;7.90;;
11568;SDS011;5840;46.894;15.542;2023-04-06T02:40:22;8.40;;;7.60;;
11568;SDS011;5840;46.894;15.542;2023-04-06T02:42:49;8.57;;;7.70;;
11568;SDS011;5840;46.894;15.542;2023-04-06T02:45:16;8.50;;;7.67;;
11568;SDS011;5840;46.894;15.542;2023-04-06T02:47:42;7.57;;;6.93;;
11568;SDS011;5840;46.894;15.542;2023-04-06T02:50:12;7.20;;;6.50;;
11568;SDS011;5840;46.894;15.542;2023-04-06T02:52:39;6.80;;;6.30;;
11568;SDS011;5840;46.894;15.542;2023-04-06T02:55:06;8.10;;;7.30;;
11568;SDS011;5840;46.894;15.542;2023-04-06T02:57:33;11.87;;;9.17;;
11568;SDS011;5840;46.894;15.542;2023-04-06T03:00:00;7.70;;;7.10;;
11568;SDS011;5840;46.894;15.542;2023-04-06T03:02:27;8.70;;;7.80;;
11568;SDS011;5840;46.894;15.542;2023-04-06T03:04:54;8.13;;;7.13;;
11568;SDS011;5840;46.894;15.542;2023-04-06T03:07:23;7.77;;;7.03;;
11568;SDS011;5840;46.894;15.542;2023-04-06T03:09:49;7.67;;;6.87;;
11568;SDS011;5840;46.894;15.542;2023-04-06T03:12:16;8.10;;;7.37;;
11568;SDS011;5840;46.894;15.542;2023-04-06T03:14:43;7.10;;;6.50;;
11568;SDS011;5840;46.894;15.542;2023-04-06T03:17:10;7.43;;;6.70;;
11568;SDS011;5840;46.894;15.542;2023-04-06T03:19:37;7.70;;;7.03;;
11568;SDS011;5840;46.894;15.542;2023-04-06T03:22:04;8.60;;;7.70;;
11568;SDS011;5840;46.894;15.542;2023-04-06T03:24:32;7.90;;;7.20;;
11568;SDS011;5840;46.894;15.542;2023-04-06T03:26:59;8.07;;;7.40;;
11568;SDS011;5840;46.894;15.542;2023-04-06T03:29:26;8.20;;;7.40;;
11568;SDS011;5840;46.894;15.542;2023-04-06T03:31:53;7.67;;;6.90;;
11568;SDS011;5840;46.894;15.542;2023-04-06T03:34:20;7.53;;;6.87;;
11568;SDS011;5840;46.894;15.542;2023-04-06T03:36:47;7.03;;;6.43;;
11568;SDS011;5840;46.894;15.542;2023-04-06T03:39:14;7.93;;;7.20;;
11568;SDS011;5840;46.894;15.542;2023-04-06T03:41:43;7.90;;;7.10;;
11568;SDS011;5840;46.894;15.542;2023-04-06T03:44:10;6.90;;;6.30;;
11568;SDS011;5840;46.894;15.542;2023-04-06T03:46:37;7.87;;;7.03;;
11568;SDS011;5840;46.894;15.542;2023-04-06T03:49:04;7.57;;;6.87;;
11568;SDS011;5840;46.894;15.542;2023-04-06T03:51:31;8.23;;;7.43;;
11568;SDS011;5840;46.894;15.542;2023-04-06T03:53:58;7.87;;;7.17;;
11568;SDS011;5840;46.894;15.542;2023-04-06T03:56:25;7.43;;;6.73;;
11568;SDS011;5840;46.894;15.542;2023-04-06T03:58:53;7.50;;;6.90;;
11568;SDS011;5840;46.894;15.542;2023-04-06T04:01:20;7.63;;;6.93;;
11568;SDS011;5840;46.894;15.542;2023-04-06T04:03:47;7.93;;;7.23;;
11568;SDS011;5840;46.894;15.542;2023-04-06T04:06:14;8.50;;;7.70;;
11568;SDS011;5840;46.894;15.542;2023-04-06T04:08:41;7.80;;;7.13;;
11568;SDS011;5840;46.894;15.542;2023-04-06T04:11:08;8.23;;;7.43;;
11568;SDS011;5840;46.894;15.542;2023-04-06T04:13:35;7.80;;;7.10;;
11568;SDS011;5840;46.894;15.542;2023-04-06T04:16:04;8.50;;;7.73;;
11568;SDS011;5840;46.894;15.542;2023-04-06T04:18:31;9.70;;;7.50;;
11568;SDS011;5840;46.894;15.542;2023-04-06T04:20:58;9.20;;;8.23;;
11568;SDS011;5840;46.894;15.542;2023-04-06T04:23:25;10.03;;;7.93;;
11568;SDS011;5840;46.894;15.542;2023-04-06T04:25:52;8.83;;;7.93;;
11568;SDS011;5840;46.894;15.542;2023-04-06T04:28:19;8.50;;;7.77;;
11568;SDS011;5840;46.894;15.542;2023-04-06T04:30:46;9.03;;;8.23;;
11568;SDS011;5840;46.894;15.542;2023-04-06T04:33:14;8.63;;;7.87;;
11568;SDS011;5840;46.894;15.542;2023-04-06T04:35:41;8.30;;;7.53;;
11568;SDS011;5840;46.894;15.542;2023-04-06T04:38:08;8.77;;;7.93;;
11568;SDS011;5840;46.894;15.542;2023-04-06T04:40:35;8.57;;;7.77;;
11568;SDS011;5840;46.894;15.542;2023-04-06T04:43:01;8.30;;;7.07;;
11568;SDS011;5840;46.894;15.542;2023-04-06T04:45:28;8.10;;;7.40;;
11568;SDS011;5840;46.894;15.542;2023-04-06T04:47:55;8.50;;;7.70;;
11568;SDS011;5840;46.894;15.542;2023-04-06T04:50:24;8.10;;;7.40;;
11568;SDS011;5840;46.894;15.542;2023-04-06T04:52:51;8.47;;;7.67;;
11568;SDS011;5840;46.894;15.542;2023-04-06T04:55:18;8.90;;;8.00;;
11568;SDS011;5840;46.894;15.542;2023-04-06T04:57:45;8.57;;;7.77;;
11568;SDS011;5840;46.894;15.542;2023-04-06T05:00:12;8.87;;;7.97;;
11568;SDS011;5840;46.894;15.542;2023-04-06T05:02:40;8.73;;;8.03;;
11568;SDS011;5840;46.894;15.542;2023-04-06T05:05:07;8.37;;;7.50;;
11568;SDS011;5840;46.894;15.542;2023-04-06T05:07:36;8.40;;;7.60;;
11568;SDS011;5840;46.894;15.542;2023-04-06T05:10:03;8.80;;;7.90;;
11568;SDS011;5840;46.894;15.542;2023-04-06T05:12:30;9.63;;;8.27;;
11568;SDS011;5840;46.894;15.542;2023-04-06T05:14:58;9.67;;;8.83;;
11568;SDS011;5840;46.894;15.542;2023-04-06T05:17:25;9.20;;;8.37;;
11568;SDS011;5840;46.894;15.542;2023-04-06T05:19:52;10.10;;;9.10;;
11568;SDS011;5840;46.894;15.542;2023-04-06T05:22:18;9.10;;;8.20;;
11568;SDS011;5840;46.894;15.542;2023-04-06T05:24:47;9.07;;;8.17;;
11568;SDS011;5840;46.894;15.542;2023-04-06T05:27:14;8.70;;;7.90;;
11568;SDS011;5840;46.894;15.542;2023-04-06T05:29:41;9.33;;;8.43;;
11568;SDS011;5840;46.894;15.542;2023-04-06T05:32:07;8.70;;;7.83;;
11568;SDS011;5840;46.894;15.542;2023-04-06T05:34:35;9.07;;;8.17;;
11568;SDS011;5840;46.894;15.542;2023-04-06T05:37:02;9.03;;;8.13;;
11568;SDS011;5840;46.894;15.542;2023-04-06T05:39:29;8.57;;;7.77;;
11568;SDS011;5840;46.894;15.542;2023-04-06T05:41:58;8.93;;;8.23;;
11568;SDS011;5840;46.894;15.542;2023-04-06T05:44:27;10.10;;;9.13;;
11568;SDS011;5840;46.894;15.542;2023-04-06T05:46:54;11.57;;;8.97;;
11568;SDS011;5840;46.894;15.542;2023-04-06T05:49:21;9.53;;;8.63;;
11568;SDS011;5840;46.894;15.542;2023-04-06T05:51:48;9.87;;;8.93;;
11568;SDS011;5840;46.894;15.542;2023-04-06T05:54:15;9.07;;;8.20;;
11568;SDS011;5840;46.894;15.542;2023-04-06T05:56:42;10.33;;;9.33;;
11568;SDS011;5840;46.894;15.542;2023-04-06T05:59:10;9.03;;;8.20;;
11568;SDS011;5840;46.894;15.542;2023-04-06T06:01:37;9.70;;;8.70;;
11568;SDS011;5840;46.894;15.542;2023-04-06T06:04:05;9.63;;;8.63;;
11568;SDS011;5840;46.894;15.542;2023-04-06T06:06:31;8.83;;;8.10;;
11568;SDS011;5840;46.894;15.542;2023-04-06T06:08:58;10.63;;;8.30;;
11568;SDS011;5840;46.894;15.542;2023-04-06T06:11:26;9.17;;;8.23;;
11568;SDS011;5840;46.894;15.542;2023-04-06T06:13:53;11.73;;;8.30;;
11568;SDS011;5840;46.894;15.542;2023-04-06T06:16:21;8.97;;;7.83;;
11568;SDS011;5840;46.894;15.542;2023-04-06T06:18:48;8.40;;;7.47;;
11568;SDS011;5840;46.894;15.542;2023-04-06T06:21:15;10.27;;;7.83;;
11568;SDS011;5840;46.894;15.542;2023-04-06T06:23:42;13.90;;;8.00;;
11568;SDS011;5840;46.894;15.542;2023-04-06T06:26:09;9.77;;;7.73;;
11568;SDS011;5840;46.894;15.542;2023-04-06T06:28:37;10.03;;;7.60;;
11568;SDS011;5840;46.894;15.542;2023-04-06T06:31:03;11.73;;;8.50;;
11568;SDS011;5840;46.894;15.542;2023-04-06T06:33:32;8.00;;;7.13;;
11568;SDS011;5840;46.894;15.542;2023-04-06T06:35:59;10.40;;;7.80;;
11568;SDS011;5840;46.894;15.542;2023-04-06T06:38:26;10.03;;;7.40;;
11568;SDS011;5840;46.894;15.542;2023-04-06T06:40:53;8.13;;;7.23;;
11568;SDS011;5840;46.894;15.542;2023-04-06T06:43:20;9.53;;;8.10;;
11568;SDS011;5840;46.894;15.542;2023-04-06T06:45:47;8.77;;;7.50;;
11568;SDS011;5840;46.894;15.542;2023-04-06T06:48:13;10.00;;;7.50;;
11568;SDS011;5840;46.894;15.542;2023-04-06T06:50:42;8.57;;;6.53;;
11568;SDS011;5840;46.894;15.542;2023-04-06T06:53:09;7.33;;;6.63;;
11568;SDS011;5840;46.894;15.542;2023-04-06T06:55:36;7.83;;;7.03;;
11568;SDS011;5840;46.894;15.542;2023-04-06T06:58:03;7.90;;;7.10;;
11568;SDS011;5840;46.894;15.542;2023-04-06T07:00:31;7.57;;;6.87;;
11568;SDS011;5840;46.894;15.542;2023-04-06T07:02:58;7.90;;;7.07;;
11568;SDS011;5840;46.894;15.542;2023-04-06T07:05:25;8.67;;;6.90;;
11568;SDS011;5840;46.894;15.542;2023-04-06T07:07:53;7.23;;;6.53;;
11568;SDS011;5840;46.894;15.542;2023-04-06T07:10:20;7.23;;;6.50;;
11568;SDS011;5840;46.894;15.542;2023-04-06T07:12:48;7.97;;;6.13;;
11568;SDS011;5840;46.894;15.542;2023-04-06T07:15:15;8.77;;;6.60;;
11568;SDS011;5840;46.894;15.542;2023-04-06T07:17:42;8.67;;;6.30;;
11568;SDS011;5840;46.894;15.542;2023-04-06T07:20:10;7.87;;;6.37;;
11568;SDS011;5840;46.894;15.542;2023-04-06T07:22:37;8.20;;;5.80;;
11568;SDS011;5840;46.894;15.542;2023-04-06T07:25:06;6.23;;;5.63;;
11568;SDS011;5840;46.894;15.542;2023-04-06T07:27:33;7.70;;;6.33;;
11568;SDS011;5840;46.894;15.542;2023-04-06T07:30:00;6.87;;;6.27;;
11568;SDS011;5840;46.894;15.542;2023-04-06T07:32:27;6.90;;;6.23;;
11568;SDS011;5840;46.894;15.542;2023-04-06T07:34:55;7.13;;;6.43;;
11568;SDS011;5840;46.894;15.542;2023-04-06T07:37:22;5.83;;;5.33;;
11568;SDS011;5840;46.894;15.542;2023-04-06T07:39:49;6.53;;;5.93;;
11568;SDS011;5840;46.894;15.542;2023-04-06T07:42:17;7.33;;;6.63;;
11568;SDS011;5840;46.894;15.542;2023-04-06T07:44:44;6.77;;;6.03;;
11568;SDS011;5840;46.894;15.542;2023-04-06T07:47:12;7.20;;;5.63;;
11568;SDS011;5840;46.894;15.542;2023-04-06T07:49:40;6.67;;;5.90;;
11568;SDS011;5840;46.894;15.542;2023-04-06T07:52:07;7.07;;;6.13;;
11568;SDS011;5840;46.894;15.542;2023-04-06T07:54:34;5.80;;;5.30;;
11568;SDS011;5840;46.894;15.542;2023-04-06T07:57:01;5.10;;;4.60;;
11568;SDS011;5840;46.894;15.542;2023-04-06T07:59:29;7.00;;;5.13;;
11568;SDS011;5840;46.894;15.542;2023-04-06T08:01:56;5.40;;;4.90;;
11568;SDS011;5840;46.894;15.542;2023-04-06T08:04:23;5.13;;;4.73;;
11568;SDS011;5840;46.894;15.542;2023-04-06T08:06:50;5.73;;;5.17;;
11568;SDS011;5840;46.894;15.542;2023-04-06T08:09:17;5.20;;;4.60;;
11568;SDS011;5840;46.894;15.542;2023-04-06T08:11:44;5.60;;;5.10;;
11568;SDS011;5840;46.894;15.542;2023-04-06T08:14:12;5.13;;;4.73;;
11568;SDS011;5840;46.894;15.542;2023-04-06T08:16:41;6.00;;;4.80;;
11568;SDS011;5840;46.894;15.542;2023-04-06T08:19:08;5.87;;;4.50;;
11568;SDS011;5840;46.894;15.542;2023-04-06T08:21:36;6.23;;;5.47;;
11568;SDS011;5840;46.894;15.542;2023-04-06T08:24:03;5.70;;;5.20;;
11568;SDS011;5840;46.894;15.542;2023-04-06T08:26:31;4.93;;;4.50;;
11568;SDS011;5840;46.894;15.542;2023-04-06T08:28:58;5.33;;;4.90;;
11568;SDS011;5840;46.894;15.542;2023-04-06T08:31:25;4.93;;;4.47;;
11568;SDS011;5840;46.894;15.542;2023-04-06T08:33:54;5.20;;;4.70;;
11568;SDS011;5840;46.894;15.542;2023-04-06T08:36:21;4.93;;;4.63;;
11568;SDS011;5840;46.894;15.542;2023-04-06T08:38:48;6.57;;;4.63;;
11568;SDS011;5840;46.894;15.542;2023-04-06T08:41:15;4.90;;;4.50;;
11568;SDS011;5840;46.894;15.542;2023-04-06T08:43:43;6.10;;;4.97;;
11568;SDS011;5840;46.894;15.542;2023-04-06T08:46:12;5.97;;;5.37;;
11568;SDS011;5840;46.894;15.542;2023-04-06T08:48:39;4.87;;;4.47;;
11568;SDS011;5840;46.894;15.542;2023-04-06T08:51:08;5.50;;;5.00;;
11568;SDS011;5840;46.894;15.542;2023-04-06T08:53:37;4.90;;;4.50;;
11568;SDS011;5840;46.894;15.542;2023-04-06T08:56:04;5.20;;;4.80;;
11568;SDS011;5840;46.894;15.542;2023-04-06T08:58:32;4.73;;;4.30;;
11568;SDS011;5840;46.894;15.542;2023-04-06T09:01:01;5.20;;;4.70;;
11568;SDS011;5840;46.894;15.542;2023-04-06T09:03:30;6.93;;;5.10;;
11568;SDS011;5840;46.894;15.542;2023-04-06T09:06:00;5.30;;;4.90;;
11568;SDS011;5840;46.894;15.542;2023-04-06T09:08:30;4.90;;;4.53;;
11568;SDS011;5840;46.894;15.542;2023-04-06T09:10:58;5.50;;;5.00;;
11568;SDS011;5840;46.894;15.542;2023-04-06T09:13:26;4.47;;;4.07;;
11568;SDS011;5840;46.894;15.542;2023-04-06T09:16:00;4.93;;;4.33;;
11568;SDS011;5840;46.894;15.542;2023-04-06T09:18:27;4.57;;;4.17;;
11568;SDS011;5840;46.894;15.542;2023-04-06T09:20:59;4.87;;;4.33;;
11568;SDS011;5840;46.894;15.542;2023-04-06T09:23:27;4.57;;;4.13;;
11568;SDS011;5840;46.894;15.542;2023-04-06T09:26:06;5.10;;;4.70;;
11568;SDS011;5840;46.894;15.542;2023-04-06T09:28:43;5.33;;;4.83;;
11568;SDS011;5840;46.894;15.542;2023-04-06T09:31:11;5.20;;;4.70;;
11568;SDS011;5840;46.894;15.542;2023-04-06T09:33:40;5.27;;;4.87;;
11568;SDS011;5840;46.894;15.542;2023-04-06T09:36:08;5.33;;;4.83;;
11568;SDS011;5840;46.894;15.542;2023-04-06T09:38:36;5.37;;;4.87;;
11568;SDS011;5840;46.894;15.542;2023-04-06T09:41:03;5.40;;;4.67;;
11568;SDS011;5840;46.894;15.542;2023-04-06T09:43:32;5.23;;;4.83;;
11568;SDS011;5840;46.894;15.542;2023-04-06T09:46:00;5.60;;;5.10;;
11568;SDS011;5840;46.894;15.542;2023-04-06T09:48:30;5.83;;;5.33;;
11568;SDS011;5840;46.894;15.542;2023-04-06T09:51:00;5.03;;;4.63;;
11568;SDS011;5840;46.894;15.542;2023-04-06T09:53:30;5.20;;;4.80;;
11568;SDS011;5840;46.894;15.542;2023-04-06T09:56:00;5.23;;;4.83;;
11568;SDS011;5840;46.894;15.542;2023-04-06T09:58:33;5.47;;;5.07;;
11568;SDS011;5840;46.894;15.542;2023-04-06T10:01:03;5.00;;;4.60;;
11568;SDS011;5840;46.894;15.542;2023-04-06T10:03:35;5.20;;;4.80;;
11568;SDS011;5840;46.894;15.542;2023-04-06T10:06:09;4.90;;;4.50;;
11568;SDS011;5840;46.894;15.542;2023-04-06T10:08:40;6.10;;;5.57;;
11568;SDS011;5840;46.894;15.542;2023-04-06T10:11:09;6.67;;;4.80;;
11568;SDS011;5840;46.894;15.542;2023-04-06T10:13:37;4.93;;;4.53;;
11568;SDS011;5840;46.894;15.542;2023-04-06T10:16:04;4.70;;;4.20;;
11568;SDS011;5840;46.894;15.542;2023-04-06T10:18:33;4.70;;;4.30;;
11568;SDS011;5840;46.894;15.542;2023-04-06T10:21:01;4.53;;;4.13;;
11568;SDS011;5840;46.894;15.542;2023-04-06T10:23:33;5.47;;;4.37;;
11568;SDS011;5840;46.894;15.542;2023-04-06T10:26:03;3.93;;;3.70;;
11568;SDS011;5840;46.894;15.542;2023-04-06T10:28:31;4.37;;;4.00;;
11568;SDS011;5840;46.894;15.542;2023-04-06T10:31:01;4.10;;;3.80;;
11568;SDS011;5840;46.894;15.542;2023-04-06T10:33:30;5.00;;;4.43;;
11568;SDS011;5840;46.894;15.542;2023-04-06T10:35:57;4.47;;;4.07;;
11568;SDS011;5840;46.894;15.542;2023-04-06T10:38:35;4.73;;;4.27;;
11568;SDS011;5840;46.894;15.542;2023-04-06T10:41:03;4.33;;;3.93;;
11568;SDS011;5840;46.894;15.542;2023-04-06T10:43:32;3.57;;;3.37;;
11568;SDS011;5840;46.894;15.542;2023-04-06T10:46:02;4.20;;;3.90;;
11568;SDS011;5840;46.894;15.542;2023-04-06T10:48:36;3.57;;;3.27;;
11568;SDS011;5840;46.894;15.542;2023-04-06T10:51:07;4.13;;;3.73;;
11568;SDS011;5840;46.894;15.542;2023-04-06T10:53:35;4.27;;;3.90;;
11568;SDS011;5840;46.894;15.542;2023-04-06T10:56:02;3.97;;;3.60;;
11568;SDS011;5840;46.894;15.542;2023-04-06T10:58:35;4.43;;;3.70;;
11568;SDS011;5840;46.894;15.542;2023-04-06T11:01:03;3.70;;;3.40;;
11568;SDS011;5840;46.894;15.542;2023-04-06T11:03:31;3.50;;;3.30;;
11568;SDS011;5840;46.894;15.542;2023-04-06T11:05:59;3.77;;;3.47;;
11568;SDS011;5840;46.894;15.542;2023-04-06T11:08:26;3.43;;;3.13;;
11568;SDS011;5840;46.894;15.542;2023-04-06T11:11:04;3.40;;;3.20;;
11568;SDS011;5840;46.894;15.542;2023-04-06T11:13:39;3.83;;;3.53;;
11568;SDS011;5840;46.894;15.542;2023-04-06T11:16:13;3.70;;;3.20;;
11568;SDS011;5840;46.894;15.542;2023-04-06T11:18:47;3.47;;;3.17;;
11568;SDS011;5840;46.894;15.542;2023-04-06T11:21:18;3.10;;;2.80;;
11568;SDS011;5840;46.894;15.542;2023-04-06T11:23:46;3.20;;;2.90;;
11568;SDS011;5840;46.894;15.542;2023-04-06T11:26:13;3.07;;;2.97;;
11568;SDS011;5840;46.894;15.542;2023-04-06T11:28:41;3.50;;;3.20;;
11568;SDS011;5840;46.894;15.542;2023-04-06T11:31:08;3.47;;;3.27;;
11568;SDS011;5840;46.894;15.542;2023-04-06T11:33:38;3.00;;;2.80;;
11568;SDS011;5840;46.894;15.542;2023-04-06T11:36:05;3.03;;;2.83;;
11568;SDS011;5840;46.894;15.542;2023-04-06T11:38:33;3.10;;;2.90;;
11568;SDS011;5840;46.894;15.542;2023-04-06T11:41:04;3.10;;;2.90;;
11568;SDS011;5840;46.894;15.542;2023-04-06T11:43:31;3.13;;;3.00;;
11568;SDS011;5840;46.894;15.542;2023-04-06T11:46:01;3.07;;;2.83;;
11568;SDS011;5840;46.894;15.542;2023-04-06T11:48:29;2.83;;;2.63;;
11568;SDS011;5840;46.894;15.542;2023-04-06T11:50:58;3.50;;;2.93;;
11568;SDS011;5840;46.894;15.542;2023-04-06T11:53:26;2.77;;;2.67;;
11568;SDS011;5840;46.894;15.542;2023-04-06T11:55:53;3.73;;;3.07;;
11568;SDS011;5840;46.894;15.542;2023-04-06T11:58:20;2.80;;;2.60;;
11568;SDS011;5840;46.894;15.542;2023-04-06T12:00:48;3.10;;;2.90;;
11568;SDS011;5840;46.894;15.542;2023-04-06T12:03:15;3.20;;;3.00;;
11568;SDS011;5840;46.894;15.542;2023-04-06T12:05:42;3.37;;;3.03;;
11568;SDS011;5840;46.894;15.542;2023-04-06T12:08:11;3.10;;;2.90;;
11568;SDS011;5840;46.894;15.542;2023-04-06T12:10:38;3.30;;;3.00;;
11568;SDS011;5840;46.894;15.542;2023-04-06T12:13:05;3.37;;;3.07;;
11568;SDS011;5840;46.894;15.542;2023-04-06T12:15:32;4.27;;;2.83;;
11568;SDS011;5840;46.894;15.542;2023-04-06T12:17:59;2.93;;;2.73;;
11568;SDS011;5840;46.894;15.542;2023-04-06T12:20:26;2.43;;;2.30;;
11568;SDS011;5840;46.894;15.542;2023-04-06T12:22:53;2.87;;;2.60;;
11568;SDS011;5840;46.894;15.542;2023-04-06T12:25:21;2.87;;;2.67;;
11568;SDS011;5840;46.894;15.542;2023-04-06T12:27:48;3.07;;;2.87;;
11568;SDS011;5840;46.894;15.542;2023-04-06T12:30:15;2.53;;;2.33;;
11568;SDS011;5840;46.894;15.542;2023-04-06T12:32:42;3.13;;;2.50;;
11568;SDS011;5840;46.894;15.542;2023-04-06T12:35:09;2.63;;;2.43;;
11568;SDS011;5840;46.894;15.542;2023-04-06T12:37:40;2.67;;;2.47;;
11568;SDS011;5840;46.894;15.542;2023-04-06T12:40:08;3.53;;;2.83;;
11568;SDS011;5840;46.894;15.542;2023-04-06T12:42:39;2.90;;;2.50;;
11568;SDS011;5840;46.894;15.542;2023-04-06T12:45:07;2.80;;;2.50;;
11568;SDS011;5840;46.894;15.542;2023-04-06T12:47:34;2.50;;;2.30;;
11568;SDS011;5840;46.894;15.542;2023-04-06T12:50:02;2.60;;;2.40;;
11568;SDS011;5840;46.894;15.542;2023-04-06T12:52:30;2.90;;;2.70;;
11568;SDS011;5840;46.894;15.542;2023-04-06T12:55:00;5.40;;;2.40;;
11568;SDS011;5840;46.894;15.542;2023-04-06T12:57:27;3.90;;;2.40;;
11568;SDS011;5840;46.894;15.542;2023-04-06T12:59:55;2.63;;;2.43;;
11568;SDS011;5840;46.894;15.542;2023-04-06T13:02:23;2.30;;;2.10;;
11568;SDS011;5840;46.894;15.542;2023-04-06T13:04:51;2.80;;;2.60;;
11568;SDS011;5840;46.894;15.542;2023-04-06T13:07:18;2.20;;;2.10;;
11568;SDS011;5840;46.894;15.542;2023-04-06T13:09:45;2.80;;;2.40;;
11568;SDS011;5840;46.894;15.542;2023-04-06T13:12:14;2.57;;;2.17;;
11568;SDS011;5840;46.894;15.542;2023-04-06T13:14:41;2.20;;;2.10;;
11568;SDS011;5840;46.894;15.542;2023-04-06T13:17:09;2.93;;;2.73;;
11568;SDS011;5840;46.894;15.542;2023-04-06T13:19:36;2.50;;;2.30;;
11568;SDS011;5840;46.894;15.542;2023-04-06T13:22:03;2.90;;;2.57;;
11568;SDS011;5840;46.894;15.542;2023-04-06T13:24:30;2.10;;;2.00;;
11568;SDS011;5840;46.894;15.542;2023-04-06T13:26:57;2.50;;;2.30;;
11568;SDS011;5840;46.894;15.542;2023-04-06T13:29:25;2.40;;;2.20;;
11568;SDS011;5840;46.894;15.542;2023-04-06T13:31:52;2.37;;;2.27;;
11568;SDS011;5840;46.894;15.542;2023-04-06T13:34:20;2.50;;;2.30;;
11568;SDS011;5840;46.894;15.542;2023-04-06T13:36:47;2.20;;;2.10;;
11568;SDS011;5840;46.894;15.542;2023-04-06T13:39:14;2.93;;;2.40;;
11568;SDS011;5840;46.894;15.542;2023-04-06T13:41:41;2.23;;;2.03;;
11568;SDS011;5840;46.894;15.542;2023-04-06T13:44:08;2.33;;;2.23;;
11568;SDS011;5840;46.894;15.542;2023-04-06T13:46:35;2.30;;;2.10;;
11568;SDS011;5840;46.894;15.542;2023-04-06T13:49:02;2.30;;;2.20;;
11568;SDS011;5840;46.894;15.542;2023-04-06T13:51:30;2.47;;;2.30;;
11568;SDS011;5840;46.894;15.542;2023-04-06T13:53:57;2.40;;;2.20;;
11568;SDS011;5840;46.894;15.542;2023-04-06T13:56:24;2.20;;;2.00;;
11568;SDS011;5840;46.894;15.542;2023-04-06T13:58:53;2.30;;;2.20;;
11568;SDS011;5840;46.894;15.542;2023-04-06T14:01:21;2.67;;;2.50;;
11568;SDS011;5840;46.894;15.542;2023-04-06T14:03:48;2.23;;;2.13;;
11568;SDS011;5840;46.894;15.542;2023-04-06T14:06:15;2.20;;;2.10;;
11568;SDS011;5840;46.894;15.542;2023-04-06T14:08:43;2.27;;;2.17;;
11568;SDS011;5840;46.894;15.542;2023-04-06T14:11:11;2.27;;;2.13;;
11568;SDS011;5840;46.894;15.542;2023-04-06T14:13:38;2.40;;;2.20;;
11568;SDS011;5840;46.894;15.542;2023-04-06T14:16:05;2.50;;;2.30;;
11568;SDS011;5840;46.894;15.542;2023-04-06T14:18:33;3.10;;;2.20;;
11568;SDS011;5840;46.894;15.542;2023-04-06T14:21:00;2.43;;;2.23;;
11568;SDS011;5840;46.894;15.542;2023-04-06T14:23:27;2.37;;;2.17;;
11568;SDS011;5840;46.894;15.542;2023-04-06T14:26:01;2.20;;;2.10;;
11568;SDS011;5840;46.894;15.542;2023-04-06T14:28:30;2.43;;;2.23;;
11568;SDS011;5840;46.894;15.542;2023-04-06T14:30:58;2.10;;;2.00;;
11568;SDS011;5840;46.894;15.542;2023-04-06T14:33:25;2.30;;;1.90;;
11568;SDS011;5840;46.894;15.542;2023-04-06T14:35:52;2.33;;;2.20;;
11568;SDS011;5840;46.894;15.542;2023-04-06T14:38:19;2.97;;;2.50;;
11568;SDS011;5840;46.894;15.542;2023-04-06T14:40:46;2.13;;;2.00;;
11568;SDS011;5840;46.894;15.542;2023-04-06T14:43:14;2.50;;;2.30;;
11568;SDS011;5840;46.894;15.542;2023-04-06T14:45:41;2.20;;;2.00;;
11568;SDS011;5840;46.894;15.542;2023-04-06T14:48:08;2.20;;;2.10;;
11568;SDS011;5840;46.894;15.542;2023-04-06T14:50:37;2.60;;;2.27;;